sensor_id;sensor_type;location;lat;lon;timestamp;pressure;altitude;pressure_sealevel;temperature;humidity
42169;BME280;27838;43.858;25.974;2022-12-17T00:01:59;100934.69;;;8.63;68.89
42169;BME280;27838;43.858;25.974;2022-12-17T00:04:42;100932.09;;;8.65;68.83
42169;BME280;27838;43.858;25.974;2022-12-17T00:07:26;100933.00;;;8.70;68.63
42169;BME280;27838;43.858;25.974;2022-12-17T00:10:11;100936.56;;;8.78;68.62
42169;BME280;27838;43.858;25.974;2022-12-17T00:12:55;100940.09;;;8.85;68.15
42169;BME280;27838;43.858;25.974;2022-12-17T00:15:39;100934.97;;;8.91;68.03
42169;BME280;27838;43.858;25.974;2022-12-17T00:18:23;100929.78;;;8.94;67.86
42169;BME280;27838;43.858;25.974;2022-12-17T00:21:08;100930.69;;;8.98;67.79
42169;BME280;27838;43.858;25.974;2022-12-17T00:23:52;100923.78;;;9.00;67.71
42169;BME280;27838;43.858;25.974;2022-12-17T00:26:36;100920.38;;;9.04;67.64
42169;BME280;27838;43.858;25.974;2022-12-17T00:29:29;100924.72;;;9.08;67.28
42169;BME280;27838;43.858;25.974;2022-12-17T00:32:13;100916.09;;;9.11;67.15
42169;BME280;27838;43.858;25.974;2022-12-17T00:34:57;100920.44;;;9.13;66.81
42169;BME280;27838;43.858;25.974;2022-12-17T00:37:41;100926.53;;;9.12;67.08
42169;BME280;27838;43.858;25.974;2022-12-17T00:40:25;100934.28;;;9.09;66.38
42169;BME280;27838;43.858;25.974;2022-12-17T00:43:11;100920.44;;;9.12;66.36
42169;BME280;27838;43.858;25.974;2022-12-17T00:46:09;100915.22;;;9.12;66.43
42169;BME280;27838;43.858;25.974;2022-12-17T00:48:53;100916.94;;;9.10;65.78
42169;BME280;27838;43.858;25.974;2022-12-17T00:51:38;100910.84;;;9.06;65.86
42169;BME280;27838;43.858;25.974;2022-12-17T00:54:21;100898.72;;;9.06;66.04
42169;BME280;27838;43.858;25.974;2022-12-17T00:57:05;100896.13;;;9.08;65.61
42169;BME280;27838;43.858;25.974;2022-12-17T00:59:48;100905.66;;;9.07;66.29
42169;BME280;27838;43.858;25.974;2022-12-17T01:02:33;100903.03;;;9.06;66.28
42169;BME280;27838;43.858;25.974;2022-12-17T01:05:16;100899.59;;;9.08;66.28
42169;BME280;27838;43.858;25.974;2022-12-17T01:08:12;100903.97;;;9.13;66.38
42169;BME280;27838;43.858;25.974;2022-12-17T01:11:01;100905.72;;;9.15;66.35
42169;BME280;27838;43.858;25.974;2022-12-17T01:13:45;100894.47;;;9.16;66.08
42169;BME280;27838;43.858;25.974;2022-12-17T01:16:30;100889.31;;;9.19;66.07
42169;BME280;27838;43.858;25.974;2022-12-17T01:19:14;100880.59;;;9.19;66.44
42169;BME280;27838;43.858;25.974;2022-12-17T01:21:58;100880.63;;;9.20;66.30
42169;BME280;27838;43.858;25.974;2022-12-17T01:24:42;100865.91;;;9.21;66.17
42169;BME280;27838;43.858;25.974;2022-12-17T01:27:26;100865.91;;;9.21;66.31
42169;BME280;27838;43.858;25.974;2022-12-17T01:30:10;100870.25;;;9.23;65.60
42169;BME280;27838;43.858;25.974;2022-12-17T01:33:02;100865.06;;;9.23;65.67
42169;BME280;27838;43.858;25.974;2022-12-17T01:35:46;100872.88;;;9.25;65.82
42169;BME280;27838;43.858;25.974;2022-12-17T01:38:30;100872.84;;;9.23;65.69
42169;BME280;27838;43.858;25.974;2022-12-17T01:41:14;100872.84;;;9.23;65.85
42169;BME280;27838;43.858;25.974;2022-12-17T01:43:58;100872.84;;;9.23;66.02
42169;BME280;27838;43.858;25.974;2022-12-17T01:46:49;100880.66;;;9.23;65.89
42169;BME280;27838;43.858;25.974;2022-12-17T01:49:33;100868.50;;;9.22;65.83
42169;BME280;27838;43.858;25.974;2022-12-17T01:52:18;100863.31;;;9.19;65.51
42169;BME280;27838;43.858;25.974;2022-12-17T01:55:03;100867.63;;;9.20;66.06
42169;BME280;27838;43.858;25.974;2022-12-17T01:57:48;100860.69;;;9.19;65.63
42169;BME280;27838;43.858;25.974;2022-12-17T02:00:32;100848.50;;;9.14;65.90
42169;BME280;27838;43.858;25.974;2022-12-17T02:03:17;100851.09;;;9.15;65.77
42169;BME280;27838;43.858;25.974;2022-12-17T02:06:16;100855.44;;;9.13;65.55
42169;BME280;27838;43.858;25.974;2022-12-17T02:09:17;100854.56;;;9.11;65.76
42169;BME280;27838;43.858;25.974;2022-12-17T02:15:12;100863.19;;;9.10;65.81
42169;BME280;27838;43.858;25.974;2022-12-17T02:18:02;100862.31;;;9.08;65.40
42169;BME280;27838;43.858;25.974;2022-12-17T02:20:50;100860.59;;;9.10;65.25
42169;BME280;27838;43.858;25.974;2022-12-17T02:27:00;100864.03;;;9.06;65.38
42169;BME280;27838;43.858;25.974;2022-12-17T02:29:50;100861.47;;;9.07;65.01
42169;BME280;27838;43.858;25.974;2022-12-17T02:32:38;100847.59;;;9.07;65.14
42169;BME280;27838;43.858;25.974;2022-12-17T02:35:33;100857.13;;;9.08;64.72
42169;BME280;27838;43.858;25.974;2022-12-17T02:38:22;100842.34;;;9.01;65.35
42169;BME280;27838;43.858;25.974;2022-12-17T02:41:14;100830.19;;;8.97;65.31
42169;BME280;27838;43.858;25.974;2022-12-17T02:43:59;100833.63;;;8.96;65.02
42169;BME280;27838;43.858;25.974;2022-12-17T02:46:44;100848.41;;;8.98;65.19
42169;BME280;27838;43.858;25.974;2022-12-17T02:49:29;100847.31;;;8.76;66.04
42169;BME280;27838;43.858;25.974;2022-12-17T02:52:17;100848.97;;;8.65;66.04
42169;BME280;27838;43.858;25.974;2022-12-17T02:55:02;100849.81;;;8.65;66.80
42169;BME280;27838;43.858;25.974;2022-12-17T02:57:46;100845.53;;;8.69;66.49
42169;BME280;27838;43.858;25.974;2022-12-17T03:00:39;100836.94;;;8.76;66.53
42169;BME280;27838;43.858;25.974;2022-12-17T03:03:37;100851.72;;;8.83;66.63
42169;BME280;27838;43.858;25.974;2022-12-17T03:06:21;100848.22;;;8.81;66.27
42169;BME280;27838;43.858;25.974;2022-12-17T03:09:05;100849.16;;;8.88;66.30
42169;BME280;27838;43.858;25.974;2022-12-17T03:11:49;100839.66;;;8.92;65.63
42169;BME280;27838;43.858;25.974;2022-12-17T03:14:33;100841.41;;;8.94;65.73
42169;BME280;27838;43.858;25.974;2022-12-17T03:17:17;100822.38;;;8.97;65.19
42169;BME280;27838;43.858;25.974;2022-12-17T03:20:02;100802.44;;;8.96;65.66
42169;BME280;27838;43.858;25.974;2022-12-17T03:22:46;100790.31;;;8.95;64.74
42169;BME280;27838;43.858;25.974;2022-12-17T03:25:35;100785.09;;;8.98;65.39
42169;BME280;27838;43.858;25.974;2022-12-17T03:28:19;100780.78;;;9.00;65.31
42169;BME280;27838;43.858;25.974;2022-12-17T03:31:03;100808.34;;;8.78;65.37
42169;BME280;27838;43.858;25.974;2022-12-17T03:33:47;100803.59;;;8.38;67.19
42169;BME280;27838;43.858;25.974;2022-12-17T03:36:31;100787.88;;;8.21;67.67
42169;BME280;27838;43.858;25.974;2022-12-17T03:39:15;100781.66;;;8.08;68.06
42169;BME280;27838;43.858;25.974;2022-12-17T03:42:00;100779.00;;;8.05;68.20
42169;BME280;27838;43.858;25.974;2022-12-17T03:44:44;100771.25;;;8.04;68.63
42169;BME280;27838;43.858;25.974;2022-12-17T03:47:28;100765.16;;;8.03;68.66
42169;BME280;27838;43.858;25.974;2022-12-17T03:50:12;100769.53;;;8.09;68.12
42169;BME280;27838;43.858;25.974;2022-12-17T03:52:56;100772.28;;;8.20;67.52
42169;BME280;27838;43.858;25.974;2022-12-17T03:55:40;100769.72;;;8.26;67.60
42169;BME280;27838;43.858;25.974;2022-12-17T03:58:24;100773.25;;;8.32;66.68
42169;BME280;27838;43.858;25.974;2022-12-17T04:01:08;100774.19;;;8.39;66.75
42169;BME280;27838;43.858;25.974;2022-12-17T04:03:52;100764.72;;;8.43;66.40
42169;BME280;27838;43.858;25.974;2022-12-17T04:06:36;100746.59;;;8.47;66.43
42169;BME280;27838;43.858;25.974;2022-12-17T04:09:25;100746.66;;;8.54;65.45
42169;BME280;27838;43.858;25.974;2022-12-17T04:12:09;100757.94;;;8.57;65.47
42169;BME280;27838;43.858;25.974;2022-12-17T04:14:53;100756.22;;;8.59;65.31
42169;BME280;27838;43.858;25.974;2022-12-17T04:17:37;100754.50;;;8.58;65.50
42169;BME280;27838;43.858;25.974;2022-12-17T04:20:21;100759.69;;;8.60;65.30
42169;BME280;27838;43.858;25.974;2022-12-17T04:23:05;100756.25;;;8.62;65.42
42169;BME280;27838;43.858;25.974;2022-12-17T04:25:48;100755.41;;;8.65;65.32
42169;BME280;27838;43.858;25.974;2022-12-17T04:28:35;100754.56;;;8.67;64.58
42169;BME280;27838;43.858;25.974;2022-12-17T04:31:19;100747.59;;;8.66;64.41
42169;BME280;27838;43.858;25.974;2022-12-17T04:34:02;100745.88;;;8.64;64.70
42169;BME280;27838;43.858;25.974;2022-12-17T04:36:46;100748.47;;;8.64;64.88
42169;BME280;27838;43.858;25.974;2022-12-17T04:39:30;100736.31;;;8.63;64.32
42169;BME280;27838;43.858;25.974;2022-12-17T04:42:14;100730.28;;;8.64;64.41
42169;BME280;27838;43.858;25.974;2022-12-17T04:44:58;100724.22;;;8.63;64.69
42169;BME280;27838;43.858;25.974;2022-12-17T04:47:42;100729.41;;;8.63;64.55
42169;BME280;27838;43.858;25.974;2022-12-17T04:50:26;100740.66;;;8.64;63.83
42169;BME280;27838;43.858;25.974;2022-12-17T04:53:10;100750.22;;;8.65;64.23
42169;BME280;27838;43.858;25.974;2022-12-17T04:55:54;100764.06;;;8.64;64.58
42169;BME280;27838;43.858;25.974;2022-12-17T04:58:35;100773.59;;;8.63;64.10
42169;BME280;27838;43.858;25.974;2022-12-17T05:01:18;100784.84;;;8.64;64.32
42169;BME280;27838;43.858;25.974;2022-12-17T05:04:02;100778.72;;;8.59;64.71
42169;BME280;27838;43.858;25.974;2022-12-17T05:06:46;100791.66;;;8.51;64.52
42169;BME280;27838;43.858;25.974;2022-12-17T05:09:30;100794.97;;;8.39;65.25
42169;BME280;27838;43.858;25.974;2022-12-17T05:12:14;100810.50;;;8.36;65.04
42169;BME280;27838;43.858;25.974;2022-12-17T05:14:58;100820.84;;;8.30;65.30
42169;BME280;27838;43.858;25.974;2022-12-17T05:17:42;100821.59;;;8.18;65.34
42169;BME280;27838;43.858;25.974;2022-12-17T05:20:26;100811.97;;;8.09;65.81
42169;BME280;27838;43.858;25.974;2022-12-17T05:23:10;100821.53;;;8.13;65.05
42169;BME280;27838;43.858;25.974;2022-12-17T05:26:05;100819.81;;;8.16;64.96
42169;BME280;27838;43.858;25.974;2022-12-17T05:28:49;100813.81;;;8.20;65.01
42169;BME280;27838;43.858;25.974;2022-12-17T05:31:33;100811.22;;;8.20;64.66
42169;BME280;27838;43.858;25.974;2022-12-17T05:34:17;100812.06;;;8.19;64.72
42169;BME280;27838;43.858;25.974;2022-12-17T05:37:04;100808.63;;;8.20;64.25
42169;BME280;27838;43.858;25.974;2022-12-17T05:39:48;100830.31;;;8.23;64.27
42169;BME280;27838;43.858;25.974;2022-12-17T05:42:32;100840.72;;;8.25;64.01
42169;BME280;27838;43.858;25.974;2022-12-17T05:45:16;100840.69;;;8.26;64.32
42169;BME280;27838;43.858;25.974;2022-12-17T05:48:00;100843.31;;;8.25;63.87
42169;BME280;27838;43.858;25.974;2022-12-17T05:50:53;100859.69;;;8.21;63.92
42169;BME280;27838;43.858;25.974;2022-12-17T05:53:37;100841.41;;;8.11;64.87
42169;BME280;27838;43.858;25.974;2022-12-17T05:56:21;100839.66;;;8.12;64.60
42169;BME280;27838;43.858;25.974;2022-12-17T05:59:05;100833.50;;;8.02;64.53
42169;BME280;27838;43.858;25.974;2022-12-17T06:01:49;100828.38;;;8.08;64.00
42169;BME280;27838;43.858;25.974;2022-12-17T06:04:33;100836.25;;;8.15;64.65
42169;BME280;27838;43.858;25.974;2022-12-17T06:07:17;100832.00;;;8.20;63.96
42169;BME280;27838;43.858;25.974;2022-12-17T06:10:01;100816.41;;;8.23;63.66
42169;BME280;27838;43.858;25.974;2022-12-17T06:12:56;100806.06;;;8.24;63.53
42169;BME280;27838;43.858;25.974;2022-12-17T06:15:40;100794.88;;;8.30;63.27
42169;BME280;27838;43.858;25.974;2022-12-17T06:18:25;100786.19;;;8.25;62.66
42169;BME280;27838;43.858;25.974;2022-12-17T06:21:09;100780.97;;;8.25;62.49
42169;BME280;27838;43.858;25.974;2022-12-17T06:23:53;100800.03;;;8.25;63.04
42169;BME280;27838;43.858;25.974;2022-12-17T06:26:37;100771.47;;;8.25;63.12
42169;BME280;27838;43.858;25.974;2022-12-17T06:29:21;100762.81;;;8.25;62.98
42169;BME280;27838;43.858;25.974;2022-12-17T06:32:05;100755.03;;;8.28;63.65
42169;BME280;27838;43.858;25.974;2022-12-17T06:34:49;100764.56;;;8.29;63.39
42169;BME280;27838;43.858;25.974;2022-12-17T06:37:33;100767.19;;;8.32;63.38
42169;BME280;27838;43.858;25.974;2022-12-17T06:40:17;100760.28;;;8.32;63.67
42169;BME280;27838;43.858;25.974;2022-12-17T06:43:01;100767.22;;;8.35;63.19
42169;BME280;27838;43.858;25.974;2022-12-17T06:45:45;100749.94;;;8.37;64.14
42169;BME280;27838;43.858;25.974;2022-12-17T06:48:29;100753.41;;;8.39;63.72
42169;BME280;27838;43.858;25.974;2022-12-17T06:51:13;100775.94;;;8.42;63.79
42169;BME280;27838;43.858;25.974;2022-12-17T06:53:57;100763.00;;;8.43;64.32
42169;BME280;27838;43.858;25.974;2022-12-17T06:56:41;100777.75;;;8.44;64.30
42169;BME280;27838;43.858;25.974;2022-12-17T06:59:25;100787.25;;;8.44;64.39
42169;BME280;27838;43.858;25.974;2022-12-17T07:02:09;100772.53;;;8.44;64.28
42169;BME280;27838;43.858;25.974;2022-12-17T07:04:53;100765.59;;;8.43;64.68
42169;BME280;27838;43.858;25.974;2022-12-17T07:07:37;100756.09;;;8.47;64.38
42169;BME280;27838;43.858;25.974;2022-12-17T07:10:21;100752.72;;;8.56;64.23
42169;BME280;27838;43.858;25.974;2022-12-17T07:13:06;100763.19;;;8.62;64.64
42169;BME280;27838;43.858;25.974;2022-12-17T07:15:51;100764.97;;;8.71;64.60
42169;BME280;27838;43.858;25.974;2022-12-17T07:18:36;100761.53;;;8.75;64.24
42169;BME280;27838;43.858;25.974;2022-12-17T07:21:20;100753.78;;;8.79;63.51
42169;BME280;27838;43.858;25.974;2022-12-17T07:24:06;100743.41;;;8.84;64.30
42169;BME280;27838;43.858;25.974;2022-12-17T07:26:50;100753.81;;;8.85;64.10
42169;BME280;27838;43.858;25.974;2022-12-17T07:29:30;100755.56;;;8.86;63.51
42169;BME280;27838;43.858;25.974;2022-12-17T07:32:14;100764.28;;;8.92;63.61
42169;BME280;27838;43.858;25.974;2022-12-17T07:34:58;100770.34;;;8.94;64.12
42169;BME280;27838;43.858;25.974;2022-12-17T07:37:42;100759.94;;;8.91;63.75
42169;BME280;27838;43.858;25.974;2022-12-17T07:40:26;100798.88;;;8.87;64.38
42169;BME280;27838;43.858;25.974;2022-12-17T07:43:11;100783.28;;;8.84;64.33
42169;BME280;27838;43.858;25.974;2022-12-17T07:45:55;100807.44;;;8.73;64.40
42169;BME280;27838;43.858;25.974;2022-12-17T07:48:39;100774.44;;;8.64;64.67
42169;BME280;27838;43.858;25.974;2022-12-17T07:51:23;100801.31;;;8.67;64.75
42169;BME280;27838;43.858;25.974;2022-12-17T07:54:07;100805.66;;;8.67;64.24
42169;BME280;27838;43.858;25.974;2022-12-17T07:56:51;100838.56;;;8.65;64.72
42169;BME280;27838;43.858;25.974;2022-12-17T07:59:35;100880.91;;;8.56;64.89
42169;BME280;27838;43.858;25.974;2022-12-17T08:02:19;100898.78;;;8.33;65.86
42169;BME280;27838;43.858;25.974;2022-12-17T08:05:03;101012.03;;;8.22;66.37
42169;BME280;27838;43.858;25.974;2022-12-17T08:07:47;101054.06;;;7.96;66.66
42169;BME280;27838;43.858;25.974;2022-12-17T08:10:31;101058.72;;;7.64;66.76
42169;BME280;27838;43.858;25.974;2022-12-17T08:13:15;101035.81;;;7.40;67.06
42169;BME280;27838;43.858;25.974;2022-12-17T08:15:59;101036.28;;;7.18;68.55
42169;BME280;27838;43.858;25.974;2022-12-17T08:18:43;101063.66;;;7.04;69.15
42169;BME280;27838;43.858;25.974;2022-12-17T08:21:27;101070.63;;;7.07;70.39
42169;BME280;27838;43.858;25.974;2022-12-17T08:24:11;101081.28;;;7.21;70.33
42169;BME280;27838;43.858;25.974;2022-12-17T08:26:54;101093.53;;;7.29;70.08
42169;BME280;27838;43.858;25.974;2022-12-17T08:29:38;101096.44;;;7.45;69.82
42169;BME280;27838;43.858;25.974;2022-12-17T08:32:23;101098.38;;;7.58;69.29
42169;BME280;27838;43.858;25.974;2022-12-17T08:35:07;101088.19;;;7.67;69.84
42169;BME280;27838;43.858;25.974;2022-12-17T08:37:51;101081.56;;;7.85;69.35
42169;BME280;27838;43.858;25.974;2022-12-17T08:40:35;101088.75;;;8.01;69.28
42169;BME280;27838;43.858;25.974;2022-12-17T08:43:19;101102.94;;;8.22;68.87
42169;BME280;27838;43.858;25.974;2022-12-17T08:46:03;101097.09;;;8.37;68.63
42169;BME280;27838;43.858;25.974;2022-12-17T08:48:47;101095.59;;;8.49;68.63
42169;BME280;27838;43.858;25.974;2022-12-17T08:51:31;101082.81;;;8.65;67.55
42169;BME280;27838;43.858;25.974;2022-12-17T08:54:15;101102.03;;;8.76;67.74
42169;BME280;27838;43.858;25.974;2022-12-17T08:56:59;101086.69;;;8.95;67.00
42169;BME280;27838;43.858;25.974;2022-12-17T08:59:43;101092.97;;;9.15;66.81
42169;BME280;27838;43.858;25.974;2022-12-17T09:02:27;101089.75;;;9.38;65.19
42169;BME280;27838;43.858;25.974;2022-12-17T09:05:11;101093.47;;;9.61;64.27
42169;BME280;27838;43.858;25.974;2022-12-17T09:08:02;101085.00;;;9.84;64.28
42169;BME280;27838;43.858;25.974;2022-12-17T09:10:47;101092.09;;;10.02;63.21
42169;BME280;27838;43.858;25.974;2022-12-17T09:13:33;101091.34;;;10.15;62.80
42169;BME280;27838;43.858;25.974;2022-12-17T09:16:18;101084.44;;;10.25;62.51
42169;BME280;27838;43.858;25.974;2022-12-17T09:19:02;101122.81;;;10.40;62.54
42169;BME280;27838;43.858;25.974;2022-12-17T09:21:47;101113.31;;;10.51;61.63
42169;BME280;27838;43.858;25.974;2022-12-17T09:24:27;101117.78;;;10.69;61.60
42169;BME280;27838;43.858;25.974;2022-12-17T09:27:11;101129.16;;;10.82;61.50
42169;BME280;27838;43.858;25.974;2022-12-17T09:29:55;101131.88;;;10.99;61.28
42169;BME280;27838;43.858;25.974;2022-12-17T09:32:40;101107.59;;;11.19;61.07
42169;BME280;27838;43.858;25.974;2022-12-17T09:35:24;101076.31;;;11.36;60.73
42169;BME280;27838;43.858;25.974;2022-12-17T09:38:13;101081.59;;;11.54;60.38
42169;BME280;27838;43.858;25.974;2022-12-17T09:41:01;101072.88;;;11.58;59.52
42169;BME280;27838;43.858;25.974;2022-12-17T09:44:00;101038.06;;;11.70;59.75
42169;BME280;27838;43.858;25.974;2022-12-17T09:47:02;101010.22;;;11.87;59.60
42169;BME280;27838;43.858;25.974;2022-12-17T09:49:48;101010.25;;;12.06;60.13
42169;BME280;27838;43.858;25.974;2022-12-17T09:52:39;101144.38;;;12.08;59.50
42169;BME280;27838;43.858;25.974;2022-12-17T09:55:50;101063.34;;;12.05;60.40
42169;BME280;27838;43.858;25.974;2022-12-17T09:58:38;101058.13;;;12.03;60.88
42169;BME280;27838;43.858;25.974;2022-12-17T10:01:24;101053.78;;;11.99;61.83
42169;BME280;27838;43.858;25.974;2022-12-17T10:04:14;101005.03;;;12.06;62.72
42169;BME280;27838;43.858;25.974;2022-12-17T10:07:00;100988.47;;;12.16;63.61
42169;BME280;27838;43.858;25.974;2022-12-17T10:09:48;100983.16;;;12.33;64.23
42169;BME280;27838;43.858;25.974;2022-12-17T10:12:33;100935.19;;;12.48;64.12
42169;BME280;27838;43.858;25.974;2022-12-17T10:15:17;100924.69;;;12.54;64.32
42169;BME280;27838;43.858;25.974;2022-12-17T10:18:06;100924.69;;;12.59;64.19
42169;BME280;27838;43.858;25.974;2022-12-17T10:20:59;100928.16;;;12.61;64.86
42169;BME280;27838;43.858;25.974;2022-12-17T10:23:43;100936.84;;;12.68;65.11
42169;BME280;27838;43.858;25.974;2022-12-17T10:26:30;100935.91;;;12.81;65.71
42169;BME280;27838;43.858;25.974;2022-12-17T10:29:22;100940.13;;;13.03;65.58
42169;BME280;27838;43.858;25.974;2022-12-17T10:34:58;100989.69;;;13.28;64.71
42169;BME280;27838;43.858;25.974;2022-12-17T10:37:42;100979.16;;;13.40;63.90
42169;BME280;27838;43.858;25.974;2022-12-17T10:40:32;100974.69;;;13.49;63.61
42169;BME280;27838;43.858;25.974;2022-12-17T10:43:30;100960.72;;;13.56;63.05
42169;BME280;27838;43.858;25.974;2022-12-17T10:46:31;100959.81;;;13.57;62.02
42169;BME280;27838;43.858;25.974;2022-12-17T10:49:21;100983.28;;;13.69;62.48
42169;BME280;27838;43.858;25.974;2022-12-17T10:52:30;100992.75;;;13.86;61.97
42169;BME280;27838;43.858;25.974;2022-12-17T10:55:26;100978.59;;;14.01;62.27
42169;BME280;27838;43.858;25.974;2022-12-17T10:58:17;100987.38;;;14.00;61.87
42169;BME280;27838;43.858;25.974;2022-12-17T11:01:03;100997.03;;;13.93;62.46
42169;BME280;27838;43.858;25.974;2022-12-17T11:03:53;101001.38;;;13.95;61.71
42169;BME280;27838;43.858;25.974;2022-12-17T11:06:41;101009.22;;;13.97;61.81
42169;BME280;27838;43.858;25.974;2022-12-17T11:09:44;100997.78;;;14.04;61.38
42169;BME280;27838;43.858;25.974;2022-12-17T11:12:40;100994.22;;;14.13;61.20
42169;BME280;27838;43.858;25.974;2022-12-17T11:15:32;100969.75;;;14.14;61.66
42169;BME280;27838;43.858;25.974;2022-12-17T11:18:23;100960.94;;;14.18;61.74
42169;BME280;27838;43.858;25.974;2022-12-17T11:21:14;100929.38;;;14.26;61.73
42169;BME280;27838;43.858;25.974;2022-12-17T11:24:00;100913.59;;;14.33;62.55
42169;BME280;27838;43.858;25.974;2022-12-17T11:26:47;100913.50;;;14.40;62.65
42169;BME280;27838;43.858;25.974;2022-12-17T11:29:33;100909.00;;;14.49;62.59
42169;BME280;27838;43.858;25.974;2022-12-17T11:32:22;100890.66;;;14.49;62.87
42169;BME280;27838;43.858;25.974;2022-12-17T11:35:19;100902.84;;;14.52;63.06
42169;BME280;27838;43.858;25.974;2022-12-17T11:38:34;100912.47;;;14.51;63.33
42169;BME280;27838;43.858;25.974;2022-12-17T11:47:49;100942.19;;;14.52;63.86
42169;BME280;27838;43.858;25.974;2022-12-17T11:50:49;100958.84;;;14.49;64.55
42169;BME280;27838;43.858;25.974;2022-12-17T11:56:37;100976.38;;;14.46;64.42
42169;BME280;27838;43.858;25.974;2022-12-17T11:59:30;100986.00;;;14.45;64.13
42169;BME280;27838;43.858;25.974;2022-12-17T12:02:45;100981.72;;;14.37;64.38
42169;BME280;27838;43.858;25.974;2022-12-17T12:08:23;100970.50;;;14.24;64.94
42169;BME280;27838;43.858;25.974;2022-12-17T12:11:38;100979.19;;;14.29;65.25
42169;BME280;27838;43.858;25.974;2022-12-17T12:14:30;100964.41;;;14.20;65.79
42169;BME280;27838;43.858;25.974;2022-12-17T12:23:34;100962.78;;;14.08;66.35
42169;BME280;27838;43.858;25.974;2022-12-17T12:26:24;100953.25;;;14.03;66.06
42169;BME280;27838;43.858;25.974;2022-12-17T12:32:16;100979.53;;;13.96;66.50
42169;BME280;27838;43.858;25.974;2022-12-17T12:35:10;100955.97;;;13.95;66.30
42169;BME280;27838;43.858;25.974;2022-12-17T12:37:54;100930.63;;;13.94;66.35
42169;BME280;27838;43.858;25.974;2022-12-17T12:40:55;100901.78;;;13.95;67.09
42169;BME280;27838;43.858;25.974;2022-12-17T12:43:46;100879.06;;;13.96;67.01
42169;BME280;27838;43.858;25.974;2022-12-17T12:46:43;100893.94;;;13.95;66.95
42169;BME280;27838;43.858;25.974;2022-12-17T12:49:45;100919.19;;;14.03;66.92
42169;BME280;27838;43.858;25.974;2022-12-17T12:52:35;100928.78;;;14.05;66.97
42169;BME280;27838;43.858;25.974;2022-12-17T12:55:20;100940.94;;;14.09;67.00
42169;BME280;27838;43.858;25.974;2022-12-17T12:58:22;100947.94;;;14.12;66.08
42169;BME280;27838;43.858;25.974;2022-12-17T13:01:07;100960.94;;;14.20;66.14
42169;BME280;27838;43.858;25.974;2022-12-17T13:03:56;100984.44;;;14.26;65.56
42169;BME280;27838;43.858;25.974;2022-12-17T13:11:45;100973.81;;;14.40;65.17
42169;BME280;27838;43.858;25.974;2022-12-17T13:14:18;100959.78;;;14.44;64.80
42169;BME280;27838;43.858;25.974;2022-12-17T13:17:00;100938.72;;;14.48;64.56
42169;BME280;27838;43.858;25.974;2022-12-17T13:24:43;100957.88;;;14.57;63.01
42169;BME280;27838;43.858;25.974;2022-12-17T13:33:13;101000.53;;;14.72;62.25
42169;BME280;27838;43.858;25.974;2022-12-17T13:36:16;100998.72;;;14.78;61.89
42169;BME280;27838;43.858;25.974;2022-12-17T13:41:24;101005.63;;;14.86;61.53
42169;BME280;27838;43.858;25.974;2022-12-17T13:43:55;101005.56;;;14.91;61.63
42169;BME280;27838;43.858;25.974;2022-12-17T13:46:24;101008.91;;;15.01;61.36
42169;BME280;27838;43.858;25.974;2022-12-17T13:49:37;101015.84;;;15.08;61.13
42169;BME280;27838;43.858;25.974;2022-12-17T13:51:45;101007.88;;;15.13;60.30
42169;BME280;27838;43.858;25.974;2022-12-17T13:54:17;101010.41;;;15.20;60.40
42169;BME280;27838;43.858;25.974;2022-12-17T13:56:45;101005.16;;;15.20;60.31
42169;BME280;27838;43.858;25.974;2022-12-17T13:59:20;101020.97;;;15.16;59.53
42169;BME280;27838;43.858;25.974;2022-12-17T14:01:49;101020.16;;;15.10;59.53
42169;BME280;27838;43.858;25.974;2022-12-17T14:04:27;101033.28;;;15.12;59.71
42169;BME280;27838;43.858;25.974;2022-12-17T14:06:59;101028.06;;;15.09;59.55
42169;BME280;27838;43.858;25.974;2022-12-17T14:09:35;101037.69;;;15.08;59.84
42169;BME280;27838;43.858;25.974;2022-12-17T14:12:04;101028.16;;;15.03;59.47
42169;BME280;27838;43.858;25.974;2022-12-17T14:15:03;101044.84;;;14.96;59.75
42169;BME280;27838;43.858;25.974;2022-12-17T14:17:47;101046.75;;;14.84;60.20
42169;BME280;27838;43.858;25.974;2022-12-17T14:20:43;101046.78;;;14.81;60.10
42169;BME280;27838;43.858;25.974;2022-12-17T14:23:28;101056.47;;;14.78;60.13
42169;BME280;27838;43.858;25.974;2022-12-17T14:25:55;101067.03;;;14.73;60.53
42169;BME280;27838;43.858;25.974;2022-12-17T14:28:34;101070.56;;;14.69;60.76
42169;BME280;27838;43.858;25.974;2022-12-17T14:31:06;101075.81;;;14.67;60.83
42169;BME280;27838;43.858;25.974;2022-12-17T14:33:35;101070.56;;;14.67;61.11
42169;BME280;27838;43.858;25.974;2022-12-17T14:36:18;101081.97;;;14.65;61.07
42169;BME280;27838;43.858;25.974;2022-12-17T14:38:56;101089.88;;;14.63;61.14
42169;BME280;27838;43.858;25.974;2022-12-17T14:41:25;101092.50;;;14.60;61.12
42169;BME280;27838;43.858;25.974;2022-12-17T14:44:19;101098.59;;;14.62;61.03
42169;BME280;27838;43.858;25.974;2022-12-17T14:46:46;101087.28;;;14.59;61.16
42169;BME280;27838;43.858;25.974;2022-12-17T14:49:19;101093.41;;;14.56;61.42
42169;BME280;27838;43.858;25.974;2022-12-17T14:51:47;101099.53;;;14.53;61.56
42169;BME280;27838;43.858;25.974;2022-12-17T14:54:26;101103.94;;;14.50;61.64
42169;BME280;27838;43.858;25.974;2022-12-17T14:56:56;101110.13;;;14.47;61.66
42169;BME280;27838;43.858;25.974;2022-12-17T14:59:34;101112.75;;;14.44;61.66
42169;BME280;27838;43.858;25.974;2022-12-17T15:02:11;101120.66;;;14.40;61.85
42169;BME280;27838;43.858;25.974;2022-12-17T15:04:41;101122.41;;;14.39;62.37
42169;BME280;27838;43.858;25.974;2022-12-17T15:07:12;101132.09;;;14.34;62.15
42169;BME280;27838;43.858;25.974;2022-12-17T15:09:39;101136.50;;;14.26;62.71